createdAt,value
2018-02-24T00:00:15.320Z,83.4
2018-02-24T00:01:16.056Z,83.6
2018-02-24T00:02:16.855Z,82.9
2018-02-24T00:03:17.569Z,82.9
2018-02-24T00:04:18.283Z,82.4
2018-02-24T00:05:19.008Z,82.5
2018-02-24T00:06:19.730Z,82.4
2018-02-24T00:07:20.445Z,82.3
2018-02-24T00:08:22.397Z,82.3
2018-02-24T00:09:23.381Z,82.6
2018-02-24T00:10:24.150Z,82.4
2018-02-24T00:11:24.909Z,82.8
2018-02-24T00:12:25.780Z,82.7
2018-02-24T00:13:26.970Z,83.1
2018-02-24T00:14:28.546Z,83.5
2018-02-24T00:15:29.330Z,83.6
2018-02-24T00:16:30.117Z,83.7
2018-02-24T00:17:30.935Z,83.5
2018-02-24T00:18:31.668Z,83.6
2018-02-24T00:19:32.390Z,83.2
2018-02-24T00:20:33.168Z,83.4
2018-02-24T00:21:33.892Z,82.7
2018-02-24T00:22:34.683Z,82.6
2018-02-24T00:23:35.458Z,83.0
2018-02-24T00:24:36.175Z,83.3
2018-02-24T00:25:36.908Z,83.3
2018-02-24T00:26:37.635Z,83.5
2018-02-24T00:27:38.346Z,83.3
2018-02-24T00:28:39.061Z,83.3
2018-02-24T00:29:39.784Z,83.6
2018-02-24T00:30:40.567Z,83.5
2018-02-24T00:31:41.280Z,83.3
2018-02-24T00:32:41.993Z,83.5
2018-02-24T00:33:42.719Z,83.3
2018-02-24T00:34:43.520Z,83.4
2018-02-24T00:35:44.187Z,83.3
2018-02-24T00:36:44.981Z,83.2
2018-02-24T00:37:45.720Z,82.9
2018-02-24T00:38:46.506Z,82.5
2018-02-24T00:39:47.298Z,82.7
2018-02-24T00:40:48.085Z,82.9
2018-02-24T00:41:48.810Z,83.1
2018-02-24T00:42:49.589Z,83.5
2018-02-24T00:43:50.305Z,83.3
2018-02-24T00:44:51.041Z,83.5
2018-02-24T00:45:51.807Z,84.3
2018-02-24T00:46:52.586Z,84.3
2018-02-24T00:47:53.297Z,84.1
2018-02-24T00:48:54.090Z,84.7
2018-02-24T00:49:54.808Z,84.7
2018-02-24T00:50:55.589Z,84.0
2018-02-24T00:51:56.369Z,84.7
2018-02-24T00:52:57.085Z,85.0
2018-02-24T00:53:57.798Z,84.7
2018-02-24T00:54:58.569Z,85.3
2018-02-24T00:55:59.348Z,84.5
2018-02-24T00:57:00.078Z,84.2
2018-02-24T00:58:00.796Z,84.0
2018-02-24T00:59:01.500Z,84.0
2018-02-24T01:00:02.214Z,83.8
2018-02-24T01:01:02.942Z,83.8
2018-02-24T01:02:03.665Z,83.7
2018-02-24T01:03:04.380Z,84.4
2018-02-24T01:04:05.145Z,83.6
2018-02-24T01:05:05.879Z,83.4
2018-02-24T01:06:06.595Z,83.4
2018-02-24T01:07:07.329Z,83.5
2018-02-24T01:08:08.091Z,83.5
2018-02-24T01:09:08.853Z,84.3
2018-02-24T01:10:09.643Z,84.1
2018-02-24T01:11:10.418Z,84.0
2018-02-24T01:12:11.220Z,83.7
2018-02-24T01:13:12.007Z,83.6
2018-02-24T01:14:12.715Z,83.6
2018-02-24T01:15:13.437Z,84.3
2018-02-24T01:16:14.176Z,84.5
2018-02-24T01:17:14.902Z,83.4
2018-02-24T01:18:15.680Z,83.3
2018-02-24T01:19:16.472Z,83.3
2018-02-24T01:20:17.197Z,83.2
2018-02-24T01:21:17.914Z,83.9
2018-02-24T01:22:18.655Z,83.9
2018-02-24T01:23:19.365Z,83.9
2018-02-24T01:24:20.088Z,84.2
2018-02-24T01:25:20.793Z,84.2
2018-02-24T01:26:21.586Z,84.6
2018-02-24T01:27:22.309Z,84.5
2018-02-24T01:28:23.136Z,85.0
2018-02-24T01:29:23.847Z,85.5
2018-02-24T01:30:24.570Z,85.0
2018-02-24T01:31:25.298Z,85.3
2018-02-24T01:32:26.008Z,85.0
2018-02-24T01:33:26.774Z,84.9
2018-02-24T01:34:27.495Z,84.8
2018-02-24T01:35:28.221Z,84.8
2018-02-24T01:36:28.935Z,85.6
2018-02-24T01:37:29.659Z,85.1
2018-02-24T01:38:30.431Z,85.0
2018-02-24T01:39:31.154Z,84.8
2018-02-24T01:40:31.879Z,85.0
2018-02-24T01:41:32.700Z,84.7
2018-02-24T01:42:33.377Z,84.6
2018-02-24T01:43:34.171Z,84.6
2018-02-24T01:44:34.961Z,84.3
2018-02-24T01:45:35.693Z,85.1
2018-02-24T01:46:36.427Z,84.6
2018-02-24T01:47:37.196Z,84.7
2018-02-24T01:48:37.995Z,84.1
2018-02-24T01:49:38.738Z,84.2
2018-02-24T01:50:39.468Z,84.2
2018-02-24T01:51:40.188Z,84.6
2018-02-24T01:52:40.912Z,84.7
2018-02-24T01:53:41.650Z,84.9
2018-02-24T01:54:42.362Z,84.4
2018-02-24T01:55:43.080Z,84.5
2018-02-24T01:56:43.781Z,84.6
2018-02-24T01:57:44.509Z,84.5
2018-02-24T01:58:45.269Z,84.6
2018-02-24T01:59:46.109Z,84.1
2018-02-24T02:00:46.822Z,84.3
2018-02-24T02:01:47.534Z,84.0
2018-02-24T02:02:48.248Z,84.3
2018-02-24T02:03:48.970Z,84.6
2018-02-24T02:04:49.743Z,84.1
2018-02-24T02:05:50.515Z,83.4
2018-02-24T02:06:51.227Z,83.6
2018-02-24T02:07:52.025Z,83.0
2018-02-24T02:08:52.788Z,83.8
2018-02-24T02:09:53.639Z,84.1
2018-02-24T02:10:54.439Z,84.9
2018-02-24T02:11:55.156Z,84.4
2018-02-24T02:12:55.889Z,84.9
2018-02-24T02:13:56.662Z,84.4
2018-02-24T02:14:57.390Z,84.6
2018-02-24T02:15:58.177Z,84.5
2018-02-24T02:16:59.021Z,84.6
2018-02-24T02:17:59.726Z,84.6
2018-02-24T02:19:00.449Z,84.4
2018-02-24T02:20:01.170Z,85.0
2018-02-24T02:21:01.903Z,85.1
2018-02-24T02:22:02.606Z,84.7
2018-02-24T02:23:03.357Z,84.6
2018-02-24T02:24:04.100Z,84.1
2018-02-24T02:25:04.807Z,84.1
2018-02-24T02:26:05.599Z,84.6
2018-02-24T02:27:06.390Z,84.3
2018-02-24T02:28:07.108Z,84.6
2018-02-24T02:29:07.839Z,84.7
2018-02-24T02:30:08.543Z,84.6
2018-02-24T02:31:09.274Z,84.8
2018-02-24T02:32:10.068Z,84.8
2018-02-24T02:33:10.842Z,84.7
2018-02-24T02:34:11.567Z,84.7
2018-02-24T02:35:12.280Z,84.4
2018-02-24T02:36:13.000Z,84.5
2018-02-24T02:37:13.717Z,84.9
2018-02-24T02:38:14.429Z,84.1
2018-02-24T02:39:15.199Z,84.2
2018-02-24T02:40:15.932Z,84.4
2018-02-24T02:41:16.677Z,84.2
2018-02-24T02:42:17.372Z,84.3
2018-02-24T02:43:18.105Z,84.2
2018-02-24T02:44:18.879Z,84.0
2018-02-24T02:45:19.594Z,84.2
2018-02-24T02:46:20.309Z,83.7
2018-02-24T02:47:21.041Z,83.2
2018-02-24T02:48:21.817Z,83.3
2018-02-24T02:49:22.536Z,83.6
2018-02-24T02:50:23.257Z,84.4
2018-02-24T02:51:23.980Z,83.8
2018-02-24T02:52:24.752Z,83.9
2018-02-24T02:53:25.463Z,83.8
2018-02-24T02:54:26.189Z,83.4
2018-02-24T02:55:26.909Z,82.9
2018-02-24T02:56:27.630Z,83.4
2018-02-24T02:57:28.361Z,83.4
2018-02-24T02:58:29.090Z,83.8
2018-02-24T02:59:29.888Z,83.5
2018-02-24T03:00:30.611Z,83.4
2018-02-24T03:01:31.396Z,83.4
2018-02-24T03:02:32.140Z,83.2
2018-02-24T03:03:32.895Z,83.2
2018-02-24T03:04:33.631Z,83.6
2018-02-24T03:05:34.353Z,83.2
2018-02-24T03:06:35.159Z,83.2
2018-02-24T03:07:35.854Z,83.7
2018-02-24T03:08:36.636Z,83.3
2018-02-24T03:09:37.348Z,83.2
2018-02-24T03:10:38.077Z,82.9
2018-02-24T03:11:38.798Z,83.1
2018-02-24T03:12:39.565Z,82.4
2018-02-24T03:13:40.336Z,82.8
2018-02-24T03:14:41.067Z,82.8
2018-02-24T03:15:41.799Z,82.6
2018-02-24T03:16:42.512Z,82.5
2018-02-24T03:17:43.297Z,83.0
2018-02-24T03:18:44.014Z,83.5
2018-02-24T03:19:44.806Z,83.1
2018-02-24T03:20:45.514Z,82.4
2018-02-24T03:21:46.234Z,82.6
2018-02-24T03:22:46.996Z,82.6
2018-02-24T03:23:47.714Z,82.9
2018-02-24T03:24:48.434Z,82.9
2018-02-24T03:25:49.217Z,83.3
2018-02-24T03:26:49.988Z,83.4
2018-02-24T03:27:50.763Z,83.4
2018-02-24T03:28:51.537Z,83.3
2018-02-24T03:29:52.326Z,83.5
2018-02-24T03:30:53.056Z,83.3
2018-02-24T03:31:53.759Z,82.7
2018-02-24T03:32:54.489Z,82.7
2018-02-24T03:33:55.207Z,82.7
2018-02-24T03:34:55.928Z,83.1
2018-02-24T03:35:56.648Z,82.9
2018-02-24T03:36:57.369Z,83.3
2018-02-24T03:37:58.139Z,83.4
2018-02-24T03:38:58.899Z,83.3
2018-02-24T03:39:59.612Z,83.6
2018-02-24T03:41:00.328Z,83.4
2018-02-24T03:42:01.052Z,83.0
2018-02-24T03:43:01.835Z,83.0
2018-02-24T03:44:02.546Z,83.9
2018-02-24T03:45:03.258Z,83.1
2018-02-24T03:46:04.068Z,83.4
2018-02-24T03:47:04.894Z,83.4
2018-02-24T03:48:05.614Z,83.6
2018-02-24T03:49:06.347Z,83.8
2018-02-24T03:50:07.080Z,84.4
2018-02-24T03:51:07.800Z,84.2
2018-02-24T03:52:08.582Z,84.1
2018-02-24T03:53:09.358Z,84.0
2018-02-24T03:54:10.078Z,84.1
2018-02-24T03:55:10.884Z,84.3
2018-02-24T03:56:11.656Z,84.5
2018-02-24T03:57:12.376Z,84.4
2018-02-24T03:58:13.101Z,84.7
2018-02-24T03:59:13.817Z,84.9
2018-02-24T04:00:14.525Z,85.5
2018-02-24T04:01:15.310Z,85.6
2018-02-24T04:02:16.138Z,85.5
2018-02-24T04:03:16.868Z,84.9
2018-02-24T04:04:17.660Z,85.5
2018-02-24T04:05:18.361Z,86.0
2018-02-24T04:06:19.066Z,86.0
2018-02-24T04:07:19.879Z,85.8
2018-02-24T04:08:20.645Z,85.6
2018-02-24T04:09:21.385Z,85.2
2018-02-24T04:10:22.157Z,86.0
2018-02-24T04:11:22.908Z,86.1
2018-02-24T04:12:23.629Z,85.6
2018-02-24T04:13:24.478Z,85.3
2018-02-24T04:14:25.204Z,85.4
2018-02-24T04:15:25.935Z,85.5
2018-02-24T04:16:26.718Z,85.5
2018-02-24T04:17:27.419Z,84.8
2018-02-24T04:18:28.139Z,85.4
2018-02-24T04:19:28.930Z,85.0
2018-02-24T04:20:29.699Z,85.0
2018-02-24T04:21:30.434Z,85.5
2018-02-24T04:22:31.180Z,85.1
2018-02-24T04:23:31.987Z,85.2
2018-02-24T04:24:32.727Z,84.8
2018-02-24T04:25:33.469Z,85.7
2018-02-24T04:26:34.123Z,85.5
2018-02-24T04:27:34.889Z,85.7
2018-02-24T04:28:35.607Z,85.5
2018-02-24T04:29:36.425Z,85.3
2018-02-24T04:30:37.146Z,85.9
2018-02-24T04:31:37.869Z,85.8
2018-02-24T04:32:38.588Z,86.0
2018-02-24T04:33:39.297Z,86.3
2018-02-24T04:34:40.057Z,86.4
2018-02-24T04:35:40.772Z,86.4
2018-02-24T04:36:41.497Z,86.6
2018-02-24T04:37:42.213Z,86.3
2018-02-24T04:38:42.941Z,86.7
2018-02-24T04:39:43.747Z,86.3
2018-02-24T04:40:44.467Z,86.6
2018-02-24T04:41:45.191Z,86.5
2018-02-24T04:42:45.898Z,87.0
2018-02-24T04:43:46.609Z,86.7
2018-02-24T04:44:47.376Z,86.6
2018-02-24T04:45:48.109Z,86.7
2018-02-24T04:46:48.912Z,86.5
2018-02-24T04:47:49.690Z,86.8
2018-02-24T04:48:50.409Z,86.2
2018-02-24T04:49:51.179Z,86.2
2018-02-24T04:50:51.956Z,87.4
2018-02-24T04:51:52.649Z,87.0
2018-02-24T04:52:53.367Z,87.1
2018-02-24T04:53:54.102Z,87.6
2018-02-24T04:54:54.894Z,88.1
2018-02-24T04:55:55.670Z,88.0
2018-02-24T04:56:56.397Z,87.3
2018-02-24T04:57:57.134Z,87.3
2018-02-24T04:58:57.917Z,87.5
2018-02-24T04:59:58.685Z,87.4
2018-02-24T05:00:59.401Z,87.3
2018-02-24T05:02:00.206Z,87.6
2018-02-24T05:03:00.946Z,87.9
2018-02-24T05:04:01.656Z,87.7
2018-02-24T05:05:02.382Z,87.9
2018-02-24T05:06:03.095Z,87.8
2018-02-24T05:07:03.878Z,88.2
2018-02-24T05:08:04.675Z,87.6
2018-02-24T05:09:05.448Z,87.9
2018-02-24T05:10:06.176Z,87.9
2018-02-24T05:11:06.894Z,87.9
2018-02-24T05:12:07.617Z,87.6
2018-02-24T05:13:08.407Z,87.5
2018-02-24T05:14:09.192Z,87.5
2018-02-24T05:15:09.988Z,87.1
2018-02-24T05:16:10.774Z,87.0
2018-02-24T05:17:11.577Z,86.3
2018-02-24T05:18:12.290Z,87.2
2018-02-24T05:19:13.007Z,87.3
2018-02-24T05:20:13.733Z,87.4
2018-02-24T05:21:14.457Z,87.3
2018-02-24T05:22:15.305Z,86.9
2018-02-24T05:23:16.047Z,86.5
2018-02-24T05:24:16.774Z,86.2
2018-02-24T05:25:17.474Z,85.6
2018-02-24T05:26:18.199Z,86.1
2018-02-24T05:27:18.941Z,85.4
2018-02-24T05:28:19.713Z,84.6
2018-02-24T05:29:20.471Z,84.6
2018-02-24T05:30:21.259Z,84.6
2018-02-24T05:31:21.974Z,83.6
2018-02-24T05:32:22.687Z,82.9
2018-02-24T05:33:23.440Z,82.4
2018-02-24T05:34:24.152Z,82.0
2018-02-24T05:35:24.868Z,81.6
2018-02-24T05:36:25.603Z,80.8
2018-02-24T05:37:26.365Z,80.5
2018-02-24T05:38:27.090Z,80.3
2018-02-24T05:39:27.853Z,81.0
2018-02-24T05:40:28.588Z,81.2
2018-02-24T05:41:29.322Z,80.4
2018-02-24T05:42:30.063Z,80.1
2018-02-24T05:43:30.864Z,79.8
2018-02-24T05:44:31.626Z,79.9
2018-02-24T05:45:32.339Z,80.0
2018-02-24T05:46:33.157Z,79.8
2018-02-24T05:47:33.875Z,79.8
2018-02-24T05:48:34.595Z,80.1
2018-02-24T05:49:35.385Z,80.0
2018-02-24T05:50:36.103Z,79.9
2018-02-24T05:51:36.892Z,79.3
2018-02-24T05:52:37.667Z,79.7
2018-02-24T05:53:38.394Z,79.6
2018-02-24T05:54:39.112Z,79.5
2018-02-24T05:55:39.824Z,78.7
2018-02-24T05:56:40.604Z,79.5
2018-02-24T05:57:41.337Z,79.7
2018-02-24T05:58:42.057Z,79.8
2018-02-24T05:59:42.762Z,79.7
2018-02-24T06:00:43.567Z,79.9
2018-02-24T06:01:44.335Z,79.5
2018-02-24T06:02:45.025Z,79.8
2018-02-24T06:03:45.795Z,79.7
2018-02-24T06:04:46.516Z,80.0
2018-02-24T06:05:47.235Z,79.9
2018-02-24T06:06:47.993Z,80.1
2018-02-24T06:07:48.712Z,79.6
2018-02-24T06:08:49.508Z,79.4
2018-02-24T06:09:50.277Z,78.9
2018-02-24T06:10:51.067Z,79.0
2018-02-24T06:11:51.798Z,79.3
2018-02-24T06:12:52.576Z,78.6
2018-02-24T06:13:53.374Z,79.1
2018-02-24T06:14:54.173Z,79.5
2018-02-24T06:15:54.899Z,79.7
2018-02-24T06:16:55.665Z,79.2
2018-02-24T06:17:56.459Z,79.3
2018-02-24T06:18:57.188Z,79.6
2018-02-24T06:19:57.903Z,79.8
2018-02-24T06:20:58.626Z,79.6
2018-02-24T06:21:59.351Z,80.0
2018-02-24T06:23:00.077Z,79.9
2018-02-24T06:24:00.802Z,80.1
2018-02-24T06:25:01.558Z,80.0
2018-02-24T06:26:02.330Z,79.8
2018-02-24T06:27:03.106Z,80.0
2018-02-24T06:28:03.848Z,79.8
2018-02-24T06:29:04.617Z,79.8
2018-02-24T06:30:05.418Z,80.1
2018-02-24T06:31:06.138Z,80.7
2018-02-24T06:32:06.856Z,80.9
2018-02-24T06:33:07.585Z,80.7
2018-02-24T06:34:08.306Z,80.9
2018-02-24T06:35:09.033Z,81.1
2018-02-24T06:36:09.810Z,81.1
2018-02-24T06:37:10.646Z,80.9
2018-02-24T06:38:11.360Z,81.2
2018-02-24T06:39:12.147Z,81.0
2018-02-24T06:40:12.957Z,81.2
2018-02-24T06:41:13.727Z,81.2
2018-02-24T06:42:14.501Z,81.2
2018-02-24T06:43:15.216Z,81.5
2018-02-24T06:44:16.025Z,81.3
2018-02-24T06:45:16.713Z,81.0
2018-02-24T06:46:17.427Z,81.2
2018-02-24T06:47:18.217Z,81.0
2018-02-24T06:48:18.988Z,81.4
2018-02-24T06:49:19.728Z,81.6
2018-02-24T06:50:20.448Z,81.2
2018-02-24T06:51:21.160Z,80.4
2018-02-24T06:52:21.876Z,80.7
2018-02-24T06:53:22.587Z,81.1
2018-02-24T06:54:23.305Z,81.2
2018-02-24T06:55:24.031Z,81.0
2018-02-24T06:56:24.753Z,81.2
2018-02-24T06:57:25.484Z,80.6
2018-02-24T06:58:26.204Z,80.6
2018-02-24T06:59:26.975Z,81.1
2018-02-24T07:00:27.686Z,80.6
2018-02-24T07:01:28.429Z,80.3
2018-02-24T07:02:29.233Z,80.4
2018-02-24T07:03:30.006Z,80.2
2018-02-24T07:04:30.729Z,80.2
2018-02-24T07:05:31.447Z,80.1
2018-02-24T07:06:32.202Z,79.9
2018-02-24T07:07:32.934Z,79.8
2018-02-24T07:08:33.660Z,79.8
2018-02-24T07:09:34.393Z,79.5
2018-02-24T07:10:35.124Z,79.7
2018-02-24T07:11:35.852Z,79.0
2018-02-24T07:12:36.574Z,78.4
2018-02-24T07:13:37.307Z,78.0
2018-02-24T07:14:38.036Z,77.4
2018-02-24T07:15:38.756Z,77.0
2018-02-24T07:16:39.504Z,76.6
2018-02-24T07:17:40.286Z,76.6
2018-02-24T07:18:40.997Z,76.3
2018-02-24T07:19:41.711Z,75.6
2018-02-24T07:20:42.504Z,75.1
2018-02-24T07:21:43.233Z,75.2
2018-02-24T07:22:43.948Z,75.8
2018-02-24T07:23:44.735Z,75.4
2018-02-24T07:24:45.528Z,75.6
2018-02-24T07:25:46.252Z,74.9
2018-02-24T07:26:47.018Z,74.7
2018-02-24T07:27:47.812Z,74.8
2018-02-24T07:28:48.577Z,74.9
2018-02-24T07:29:49.308Z,75.1
2018-02-24T07:30:50.086Z,75.4
2018-02-24T07:31:50.881Z,75.1
2018-02-24T07:32:51.604Z,74.8
2018-02-24T07:33:52.443Z,75.2
2018-02-24T07:34:53.149Z,74.6
2018-02-24T07:35:53.851Z,75.6
2018-02-24T07:36:54.584Z,75.2
2018-02-24T07:37:55.353Z,74.8
2018-02-24T07:38:56.070Z,75.0
2018-02-24T07:39:56.867Z,74.8
2018-02-24T07:40:57.587Z,74.4
2018-02-24T07:41:58.370Z,74.0
2018-02-24T07:42:59.090Z,73.0
2018-02-24T07:43:59.809Z,72.9
2018-02-24T07:45:00.580Z,72.5
2018-02-24T07:46:01.300Z,72.1
2018-02-24T07:47:02.054Z,72.3
2018-02-24T07:48:02.795Z,71.5
2018-02-24T07:49:03.567Z,71.8
2018-02-24T07:50:04.335Z,71.6
2018-02-24T07:51:05.050Z,71.7
2018-02-24T07:52:05.778Z,71.8
2018-02-24T07:53:06.553Z,72.0
2018-02-24T07:54:07.345Z,72.2
2018-02-24T07:55:08.113Z,72.1
2018-02-24T07:56:08.831Z,73.0
2018-02-24T07:57:09.558Z,72.7
2018-02-24T07:58:10.386Z,72.7
2018-02-24T07:59:11.129Z,73.1
2018-02-24T08:00:11.850Z,74.7
2018-02-24T08:01:12.617Z,75.4
2018-02-24T08:02:13.351Z,76.5
2018-02-24T08:03:14.130Z,77.0
2018-02-24T08:04:14.877Z,76.9
2018-02-24T08:05:15.647Z,76.7
2018-02-24T08:06:16.416Z,76.1
2018-02-24T08:07:17.123Z,76.5
2018-02-24T08:08:17.863Z,76.1
2018-02-24T08:09:18.633Z,76.2
2018-02-24T08:10:19.372Z,75.4
2018-02-24T08:11:20.129Z,74.7
2018-02-24T08:12:20.830Z,74.5
2018-02-24T08:13:21.574Z,73.9
2018-02-24T08:14:22.359Z,72.7
2018-02-24T08:15:23.086Z,72.1
2018-02-24T08:16:23.847Z,72.5
2018-02-24T08:17:24.620Z,71.9
2018-02-24T08:18:25.426Z,72.7
2018-02-24T08:19:26.158Z,73.4
2018-02-24T08:20:26.892Z,72.8
2018-02-24T08:21:27.662Z,73.1
2018-02-24T08:22:28.445Z,72.4
2018-02-24T08:23:29.191Z,72.4
2018-02-24T08:24:30.005Z,73.7
2018-02-24T08:25:30.786Z,73.7
2018-02-24T08:26:31.548Z,74.8
2018-02-24T08:27:32.268Z,75.8
2018-02-24T08:28:33.038Z,75.2
2018-02-24T08:29:33.763Z,75.4
2018-02-24T08:30:34.489Z,75.3
2018-02-24T08:31:35.273Z,75.7
2018-02-24T08:32:36.074Z,76.1
2018-02-24T08:33:36.922Z,76.3
2018-02-24T08:34:37.635Z,76.4
2018-02-24T08:35:38.353Z,76.4
2018-02-24T08:36:39.077Z,75.8
2018-02-24T08:37:39.824Z,76.2
2018-02-24T08:38:40.559Z,76.3
2018-02-24T08:39:41.328Z,76.8
2018-02-24T08:40:42.120Z,77.4
2018-02-24T08:41:42.880Z,77.8
2018-02-24T08:42:43.638Z,78.4
2018-02-24T08:43:44.402Z,78.6
2018-02-24T08:44:45.145Z,78.8
2018-02-24T08:45:45.914Z,79.2
2018-02-24T08:46:46.646Z,79.3
2018-02-24T08:47:47.368Z,79.1
2018-02-24T08:48:48.090Z,79.1
2018-02-24T08:49:48.819Z,79.2
2018-02-24T08:50:49.559Z,79.9
2018-02-24T08:51:50.280Z,80.2
2018-02-24T08:52:50.998Z,79.6
2018-02-24T08:53:51.717Z,79.3
2018-02-24T08:54:52.445Z,79.8
2018-02-24T08:55:53.182Z,79.1
2018-02-24T08:56:54.001Z,79.5
2018-02-24T08:57:54.718Z,79.6
2018-02-24T08:58:55.436Z,79.8
2018-02-24T08:59:56.166Z,80.0
2018-02-24T09:00:56.879Z,78.9
2018-02-24T09:01:57.587Z,79.7
2018-02-24T09:02:58.320Z,79.5
2018-02-24T09:03:59.027Z,80.0
2018-02-24T09:04:59.765Z,79.2
2018-02-24T09:06:00.479Z,79.1
2018-02-24T09:07:01.204Z,79.9
2018-02-24T09:08:01.920Z,79.5
2018-02-24T09:09:02.662Z,79.5
2018-02-24T09:10:03.388Z,80.4
2018-02-24T09:11:04.211Z,79.7
2018-02-24T09:12:04.983Z,79.4
2018-02-24T09:13:05.777Z,79.4
2018-02-24T09:14:06.467Z,79.0
2018-02-24T09:15:07.239Z,79.6
2018-02-24T09:16:08.020Z,79.2
2018-02-24T09:17:08.754Z,79.2
2018-02-24T09:18:09.503Z,79.1
2018-02-24T09:19:10.231Z,78.8
2018-02-24T09:20:10.962Z,79.3
2018-02-24T09:21:11.758Z,79.5
2018-02-24T09:22:12.482Z,79.4
2018-02-24T09:23:13.203Z,79.5
2018-02-24T09:24:13.990Z,79.3
2018-02-24T09:25:14.791Z,79.2
2018-02-24T09:26:15.528Z,79.2
2018-02-24T09:27:16.338Z,79.1
2018-02-24T09:28:17.070Z,78.9
2018-02-24T09:29:17.785Z,80.2
2018-02-24T09:30:18.517Z,79.5
2018-02-24T09:31:19.255Z,79.5
2018-02-24T09:32:19.975Z,80.2
2018-02-24T09:33:20.700Z,80.6
2018-02-24T09:34:21.492Z,80.9
2018-02-24T09:35:22.262Z,80.7
2018-02-24T09:36:23.032Z,81.4
2018-02-24T09:37:23.755Z,81.8
2018-02-24T09:38:24.488Z,82.0
2018-02-24T09:39:25.200Z,81.9
2018-02-24T09:40:25.940Z,82.3
2018-02-24T09:41:26.686Z,82.6
2018-02-24T09:42:27.482Z,82.8
2018-02-24T09:43:28.212Z,83.7
2018-02-24T09:44:29.019Z,83.4
2018-02-24T09:45:29.797Z,84.3
2018-02-24T09:46:30.630Z,84.3
2018-02-24T09:47:31.358Z,84.5
2018-02-24T09:48:32.137Z,85.0
2018-02-24T09:49:32.899Z,85.3
2018-02-24T09:50:33.619Z,85.7
2018-02-24T09:51:34.408Z,85.8
2018-02-24T09:52:35.136Z,85.7
2018-02-24T09:53:35.861Z,85.7
2018-02-24T09:54:36.588Z,85.7
2018-02-24T09:55:37.379Z,85.9
2018-02-24T09:56:38.119Z,85.6
2018-02-24T09:57:38.835Z,85.9
2018-02-24T09:58:39.570Z,86.5
2018-02-24T09:59:40.282Z,86.5
2018-02-24T10:00:41.008Z,86.6
2018-02-24T10:01:41.801Z,86.7
2018-02-24T10:02:42.518Z,86.5
2018-02-24T10:03:43.246Z,86.5
2018-02-24T10:04:43.979Z,86.5
2018-02-24T10:05:44.705Z,86.7
2018-02-24T10:06:45.455Z,86.9
2018-02-24T10:07:46.231Z,86.7
2018-02-24T10:08:47.013Z,87.1
2018-02-24T10:09:47.784Z,87.2
2018-02-24T10:10:48.500Z,87.4
2018-02-24T10:11:49.230Z,87.4
2018-02-24T10:12:49.943Z,86.7
2018-02-24T10:13:50.674Z,86.7
2018-02-24T10:14:51.410Z,87.0
2018-02-24T10:15:52.190Z,87.1
2018-02-24T10:16:52.937Z,86.7
2018-02-24T10:17:53.672Z,86.8
2018-02-24T10:18:54.452Z,85.7
2018-02-24T10:19:55.126Z,85.6
2018-02-24T10:20:55.910Z,85.6
2018-02-24T10:21:56.628Z,86.0
2018-02-24T10:22:57.354Z,85.9
2018-02-24T10:23:58.145Z,84.8
2018-02-24T10:24:58.906Z,84.6
2018-02-24T10:25:59.609Z,84.6
2018-02-24T10:27:00.333Z,85.0
2018-02-24T10:28:01.157Z,84.4
2018-02-24T10:29:01.895Z,84.7
2018-02-24T10:30:02.656Z,84.5
2018-02-24T10:31:03.380Z,84.1
2018-02-24T10:32:04.099Z,83.8
2018-02-24T10:33:04.891Z,83.8
2018-02-24T10:34:05.616Z,84.0
2018-02-24T10:35:06.336Z,83.8
2018-02-24T10:36:07.113Z,83.5
2018-02-24T10:37:07.841Z,83.2
2018-02-24T10:38:08.630Z,82.5
2018-02-24T10:39:09.356Z,82.4
2018-02-24T10:40:10.102Z,82.8
2018-02-24T10:41:10.877Z,81.9
2018-02-24T10:42:11.608Z,81.5
2018-02-24T10:43:12.349Z,82.1
2018-02-24T10:44:13.079Z,81.5
2018-02-24T10:45:13.786Z,81.2
2018-02-24T10:46:14.506Z,81.0
2018-02-24T10:47:15.324Z,80.9
2018-02-24T10:48:16.061Z,80.0
2018-02-24T10:49:16.838Z,80.3
2018-02-24T10:50:17.570Z,80.0
2018-02-24T10:51:18.292Z,79.1
2018-02-24T10:52:19.034Z,79.1
2018-02-24T10:53:19.776Z,79.1
2018-02-24T10:54:20.470Z,79.3
2018-02-24T10:55:21.207Z,78.2
2018-02-24T10:56:23.241Z,77.9
2018-02-24T10:57:23.910Z,77.6
2018-02-24T10:58:25.249Z,77.8
2018-02-24T10:59:26.224Z,77.6
2018-02-24T11:00:28.221Z,77.6
2018-02-24T11:01:29.108Z,76.9
2018-02-24T11:02:29.831Z,76.9
2018-02-24T11:03:30.597Z,77.5
2018-02-24T11:04:31.319Z,77.0
2018-02-24T11:05:32.047Z,76.3
2018-02-24T11:06:32.823Z,76.1
2018-02-24T11:07:33.638Z,76.8
2018-02-24T11:08:34.405Z,76.4
2018-02-24T11:09:35.162Z,76.2
2018-02-24T11:10:35.879Z,77.4
2018-02-24T11:11:36.597Z,77.4
2018-02-24T11:12:37.385Z,77.6
2018-02-24T11:13:38.132Z,77.5
2018-02-24T11:14:38.912Z,77.6
2018-02-24T11:15:39.699Z,77.4
2018-02-24T11:16:40.449Z,76.7
2018-02-24T11:17:41.192Z,76.5
2018-02-24T11:18:41.935Z,76.4
2018-02-24T11:19:42.712Z,76.8
2018-02-24T11:20:43.492Z,77.1
2018-02-24T11:21:44.302Z,76.9
2018-02-24T11:22:45.108Z,76.1
2018-02-24T11:23:45.820Z,76.6
2018-02-24T11:24:46.604Z,76.3
2018-02-24T11:25:47.345Z,76.4
2018-02-24T11:26:48.113Z,76.3
2018-02-24T11:27:48.895Z,76.4
2018-02-24T11:28:49.766Z,76.2
2018-02-24T11:29:50.479Z,77.1
2018-02-24T11:30:51.191Z,76.6
2018-02-24T11:31:51.930Z,76.9
2018-02-24T11:32:52.649Z,77.6
2018-02-24T11:33:53.370Z,77.8
2018-02-24T11:34:54.136Z,78.8
2018-02-24T11:35:54.865Z,78.6
2018-02-24T11:36:55.588Z,78.6
2018-02-24T11:37:56.319Z,78.6
2018-02-24T11:38:57.044Z,78.6
2018-02-24T11:39:57.819Z,79.2
2018-02-24T11:40:58.646Z,78.6
2018-02-24T11:41:59.365Z,78.9
2018-02-24T11:43:00.174Z,78.6
2018-02-24T11:44:00.947Z,79.3
2018-02-24T11:45:01.672Z,79.6
2018-02-24T11:46:02.464Z,79.6
2018-02-24T11:47:03.199Z,79.2
2018-02-24T11:48:03.918Z,79.4
2018-02-24T11:49:04.653Z,79.3
2018-02-24T11:50:05.463Z,79.8
2018-02-24T11:51:06.230Z,79.5
2018-02-24T11:52:06.967Z,79.5
2018-02-24T11:53:07.778Z,79.5
2018-02-24T11:54:08.500Z,79.6
2018-02-24T11:55:09.229Z,79.5
2018-02-24T11:56:10.979Z,79.4
2018-02-24T11:57:11.830Z,79.3
2018-02-24T11:58:12.561Z,80.1
2018-02-24T11:59:13.360Z,79.5
2018-02-24T12:00:14.090Z,80.0
2018-02-24T12:01:14.906Z,79.9
2018-02-24T12:02:15.679Z,79.6
2018-02-24T12:03:16.453Z,79.3
2018-02-24T12:04:17.173Z,78.9
2018-02-24T12:05:17.911Z,78.2
2018-02-24T12:06:18.643Z,77.4
2018-02-24T12:07:19.467Z,76.3
2018-02-24T12:08:20.202Z,75.3
2018-02-24T12:09:20.985Z,74.5
2018-02-24T12:10:21.659Z,74.6
2018-02-24T12:11:22.468Z,74.1
2018-02-24T12:12:23.190Z,73.5
2018-02-24T12:13:23.897Z,74.2
2018-02-24T12:14:24.636Z,74.2
2018-02-24T12:15:25.367Z,74.4
2018-02-24T12:16:26.165Z,74.2
2018-02-24T12:17:26.969Z,73.9
2018-02-24T12:18:27.728Z,74.2
2018-02-24T12:19:28.502Z,73.9
2018-02-24T12:20:29.315Z,74.7
2018-02-24T12:21:30.072Z,74.4
2018-02-24T12:22:30.877Z,75.2
2018-02-24T12:23:31.643Z,74.9
2018-02-24T12:24:32.379Z,74.6
2018-02-24T12:25:33.125Z,74.3
2018-02-24T12:26:33.841Z,74.1
2018-02-24T12:27:34.560Z,74.0
2018-02-24T12:28:35.325Z,73.4
2018-02-24T12:29:36.088Z,73.5
2018-02-24T12:30:36.869Z,73.0
2018-02-24T12:31:37.682Z,72.9
2018-02-24T12:32:38.459Z,73.0
2018-02-24T12:33:39.202Z,73.1
2018-02-24T12:34:39.967Z,72.5
2018-02-24T12:35:40.690Z,72.3
2018-02-24T12:36:41.435Z,72.3
2018-02-24T12:37:42.213Z,72.4
2018-02-24T12:38:42.929Z,73.1
2018-02-24T12:39:43.668Z,72.3
2018-02-24T12:40:44.488Z,73.2
2018-02-24T12:41:45.207Z,73.7
2018-02-24T12:42:45.929Z,73.5
2018-02-24T12:43:46.645Z,73.8
2018-02-24T12:44:47.378Z,72.8
2018-02-24T12:45:48.103Z,71.4
2018-02-24T12:46:48.900Z,70.7
2018-02-24T12:47:49.627Z,70.7
2018-02-24T12:48:50.464Z,69.9
2018-02-24T12:49:51.153Z,69.4
2018-02-24T12:50:51.890Z,68.7
2018-02-24T12:51:52.669Z,68.2
2018-02-24T12:52:53.392Z,65.9
2018-02-24T12:53:54.121Z,65.6
2018-02-24T12:54:54.856Z,64.7
2018-02-24T12:55:55.715Z,63.1
2018-02-24T12:56:56.538Z,63.1
2018-02-24T12:57:57.269Z,63.5
2018-02-24T12:58:57.992Z,63.6
2018-02-24T12:59:58.782Z,64.3
2018-02-24T13:00:59.570Z,63.8
2018-02-24T13:02:00.287Z,63.2
2018-02-24T13:03:01.021Z,63.8
2018-02-24T13:04:01.751Z,62.9
2018-02-24T13:05:02.551Z,63.0
2018-02-24T13:06:03.324Z,61.5
2018-02-24T13:07:04.064Z,60.7
2018-02-24T13:08:04.804Z,59.5
2018-02-24T13:09:05.617Z,59.7
2018-02-24T13:10:06.417Z,58.9
2018-02-24T13:11:07.190Z,58.4
2018-02-24T13:12:07.911Z,58.4
2018-02-24T13:13:08.721Z,58.7
2018-02-24T13:14:09.457Z,58.8
2018-02-24T13:15:10.190Z,59.6
2018-02-24T13:16:10.987Z,59.2
2018-02-24T13:17:11.707Z,59.0
2018-02-24T13:18:12.409Z,58.9
2018-02-24T13:19:13.177Z,59.4
2018-02-24T13:20:13.948Z,58.8
2018-02-24T13:21:14.678Z,58.4
2018-02-24T13:22:15.406Z,57.4
2018-02-24T13:23:16.141Z,56.1
2018-02-24T13:24:16.927Z,56.0
2018-02-24T13:25:17.683Z,55.7
2018-02-24T13:26:18.410Z,55.3
2018-02-24T13:27:19.135Z,55.0
2018-02-24T13:28:19.968Z,55.5